Aeroporto :
LOGIN :

Iscrizione | Disclaimer

   EN    FR    IT 

 










Sommario :    VFR   VFR Marginale   IFR   IFR Intensivo   IFR Molto Intensivo
Visibilità : 
Base nubi : 
>= 8 km
>= 3000ft
5 / 8 km
1000 / 3000 ft
1500m / 5 km
500 / 1000 ft
800 / 1500m
200 / 500 ft
< 800m
< 200 ft
Simboli :   Temporali  Nebbia  Neve Forte  Precipitazioni Forti  Vento > 20 kt
SIGMETs :   Varie  Temporali  Ghiacco  Turbolenza  Onda orograficha  Ceneri Vulcaniche






- Altitudine del aeroporto : 124 ft
- Codice IATA : NHT


EGWU - RAF Northolt

ULTIMO METAR :
  • 151820Z 01014KT 9000 -RA FEW014 BKN017 OVC035 07/05 Q1001 TEMPO 6000 SCT014 RMK WHT TEMPO GRN

METARs OBSOLETI :
  • 151750Z 01014KT 9000 -RA FEW015 SCT018 OVC035 07/05 Q1001 TEMPO 6000 RA SCT014
  • 151720Z 02014KT 9999 -RA FEW020 BKN040 08/04 Q1001 TEMPO 6000 RA BKN018
  • 151650Z 02014KT 9999 -RA FEW022 SCT035 OVC050 08/04 Q1001 TEMPO 7000 BKN020 RMK BLU TEMPO WHT
  • 151620Z 02013KT 9999 -RA SCT021 BKN050 08/05 Q1001 TEMPO FEW020 RMK WHT TEMPO BLU
  • 151550Z 03013KT 9999 FEW019 BKN050 08/04 Q1002 BECMG BKN018 RMK BLU BECMG WHT

TAF TAF EGWU
Valido dal 15 a 18 ore il 16 a 12 ore UTC


151631Z 1518/1612 03013KT 9999 -RA FEW012 BKN020
TEMPO 1518/1524 7000 BKN012
PROB30
TEMPO 1518/1521 4000 RADZ
PROB30
TEMPO 1521/1524 FEW015 BKN025
BECMG 1600/1603 FEW015 SCT030
TEMPO 1603/1611 SCT015



MetMap, La meteo Aeronautica in un colpo d'occhio ! - Copyright ORBIFLY Dicembre 2007 - Disclaimer

ORBIFLY MET'MAP TEAM :

Programmazione e sviluppo : Alexandra Zaïnal
Concezione e sviluppo : Baudouin d'Aumeries
Co-Programmazione e sviluppo : Marc-Olivier Méhu
Supporto tecnico e logistico : Manuel Goepfert
Aiuto per la traduzione : Arnaldo La Scala

Contatto : metmap@orbifly.com




FONTI E CREDITI :

   NOAA